sensor_id;sensor_type;location;lat;lon;timestamp;pressure;altitude;pressure_sealevel;temperature;humidity
40117;BME280;25829;50.228;18.936;2023-07-08T00:06:02;99182.25;;;13.50;65.32
40117;BME280;25829;50.228;18.936;2023-07-08T00:09:10;99181.91;;;13.40;64.45
40117;BME280;25829;50.228;18.936;2023-07-08T00:12:19;99175.78;;;13.39;64.38
40117;BME280;25829;50.228;18.936;2023-07-08T00:15:29;99179.66;;;13.37;64.80
40117;BME280;25829;50.228;18.936;2023-07-08T00:18:31;99177.84;;;13.31;64.91
40117;BME280;25829;50.228;18.936;2023-07-08T00:21:32;99188.44;;;13.31;65.26
40117;BME280;25829;50.228;18.936;2023-07-08T00:24:32;99181.72;;;13.28;65.39
40117;BME280;25829;50.228;18.936;2023-07-08T00:27:33;99183.34;;;13.29;65.29
40117;BME280;25829;50.228;18.936;2023-07-08T00:30:34;99174.56;;;13.29;65.09
40117;BME280;25829;50.228;18.936;2023-07-08T00:33:35;99180.28;;;13.32;65.23
40117;BME280;25829;50.228;18.936;2023-07-08T00:36:38;99178.88;;;13.30;65.14
40117;BME280;25829;50.228;18.936;2023-07-08T00:39:42;99182.53;;;13.29;65.02
40117;BME280;25829;50.228;18.936;2023-07-08T00:42:44;99181.31;;;13.25;65.08
40117;BME280;25829;50.228;18.936;2023-07-08T00:45:48;99183.97;;;13.18;64.77
40117;BME280;25829;50.228;18.936;2023-07-08T00:48:53;99173.34;;;13.11;64.85
40117;BME280;25829;50.228;18.936;2023-07-08T00:51:56;99171.13;;;13.08;64.85
40117;BME280;25829;50.228;18.936;2023-07-08T00:55:08;99166.25;;;12.99;65.28
40117;BME280;25829;50.228;18.936;2023-07-08T00:58:10;99175.22;;;12.84;65.32
40117;BME280;25829;50.228;18.936;2023-07-08T01:01:11;99180.31;;;12.72;65.60
40117;BME280;25829;50.228;18.936;2023-07-08T01:07:18;99154.88;;;12.71;65.51
40117;BME280;25829;50.228;18.936;2023-07-08T01:10:33;99166.91;;;12.74;65.97
40117;BME280;25829;50.228;18.936;2023-07-08T01:13:42;99161.59;;;12.74;65.96
40117;BME280;25829;50.228;18.936;2023-07-08T01:16:44;99158.31;;;12.72;66.00
40117;BME280;25829;50.228;18.936;2023-07-08T01:19:45;99159.75;;;12.75;65.88
40117;BME280;25829;50.228;18.936;2023-07-08T01:22:49;99152.63;;;12.75;65.63
40117;BME280;25829;50.228;18.936;2023-07-08T01:25:52;99164.03;;;12.76;65.66
40117;BME280;25829;50.228;18.936;2023-07-08T01:28:55;99157.94;;;12.75;65.68
40117;BME280;25829;50.228;18.936;2023-07-08T01:31:58;99165.06;;;12.75;65.89
40117;BME280;25829;50.228;18.936;2023-07-08T01:39:24;99163.81;;;12.70;66.42
40117;BME280;25829;50.228;18.936;2023-07-08T01:42:31;99158.31;;;12.65;66.21
40117;BME280;25829;50.228;18.936;2023-07-08T01:45:38;99162.81;;;12.65;66.04
40117;BME280;25829;50.228;18.936;2023-07-08T01:48:54;99167.47;;;12.63;66.53
40117;BME280;25829;50.228;18.936;2023-07-08T01:51:59;99160.78;;;12.60;66.24
40117;BME280;25829;50.228;18.936;2023-07-08T01:55:00;99160.38;;;12.57;66.27
40117;BME280;25829;50.228;18.936;2023-07-08T01:58:10;99164.63;;;12.51;66.00
40117;BME280;25829;50.228;18.936;2023-07-08T02:01:11;99171.75;;;12.44;66.12
40117;BME280;25829;50.228;18.936;2023-07-08T02:04:12;99181.94;;;12.40;66.42
40117;BME280;25829;50.228;18.936;2023-07-08T02:07:14;99183.13;;;12.38;66.40
40117;BME280;25829;50.228;18.936;2023-07-08T02:10:15;99187.81;;;12.36;66.62
40117;BME280;25829;50.228;18.936;2023-07-08T02:13:16;99181.09;;;12.33;67.00
40117;BME280;25829;50.228;18.936;2023-07-08T02:16:16;99185.38;;;12.34;66.36
40117;BME280;25829;50.228;18.936;2023-07-08T02:19:18;99176.41;;;12.35;66.45
40117;BME280;25829;50.228;18.936;2023-07-08T02:22:19;99182.72;;;12.28;66.75
40117;BME280;25829;50.228;18.936;2023-07-08T02:25:20;99178.63;;;12.25;67.14
40117;BME280;25829;50.228;18.936;2023-07-08T02:28:24;99183.13;;;12.24;66.89
40117;BME280;25829;50.228;18.936;2023-07-08T02:31:25;99183.91;;;12.18;66.62
40117;BME280;25829;50.228;18.936;2023-07-08T02:34:26;99186.34;;;12.13;66.81
40117;BME280;25829;50.228;18.936;2023-07-08T02:37:27;99194.50;;;12.12;67.07
40117;BME280;25829;50.228;18.936;2023-07-08T02:40:28;99182.66;;;12.08;67.03
40117;BME280;25829;50.228;18.936;2023-07-08T02:43:28;99181.03;;;12.07;67.09
40117;BME280;25829;50.228;18.936;2023-07-08T02:46:29;99189.78;;;12.07;67.05
40117;BME280;25829;50.228;18.936;2023-07-08T02:49:30;99192.81;;;12.04;67.05
40117;BME280;25829;50.228;18.936;2023-07-08T02:52:34;99190.19;;;12.04;67.09
40117;BME280;25829;50.228;18.936;2023-07-08T02:55:35;99182.00;;;11.99;66.83
40117;BME280;25829;50.228;18.936;2023-07-08T02:58:36;99196.72;;;12.02;66.97
40117;BME280;25829;50.228;18.936;2023-07-08T03:01:37;99188.97;;;12.00;66.60
40117;BME280;25829;50.228;18.936;2023-07-08T03:04:41;99187.47;;;11.97;66.82
40117;BME280;25829;50.228;18.936;2023-07-08T03:07:42;99195.00;;;11.94;66.69
40117;BME280;25829;50.228;18.936;2023-07-08T03:10:47;99197.22;;;11.90;66.76
40117;BME280;25829;50.228;18.936;2023-07-08T03:13:48;99200.06;;;11.89;66.72
40117;BME280;25829;50.228;18.936;2023-07-08T03:16:48;99202.09;;;11.87;67.14
40117;BME280;25829;50.228;18.936;2023-07-08T03:19:49;99198.03;;;11.84;66.53
40117;BME280;25829;50.228;18.936;2023-07-08T03:22:50;99201.88;;;11.82;66.69
40117;BME280;25829;50.228;18.936;2023-07-08T03:25:52;99207.78;;;11.84;66.72
40117;BME280;25829;50.228;18.936;2023-07-08T03:29:00;99199.84;;;11.84;67.25
40117;BME280;25829;50.228;18.936;2023-07-08T03:32:03;99203.88;;;11.73;67.17
40117;BME280;25829;50.228;18.936;2023-07-08T03:35:04;99205.28;;;11.69;67.22
40117;BME280;25829;50.228;18.936;2023-07-08T03:38:05;99197.78;;;11.72;67.53
40117;BME280;25829;50.228;18.936;2023-07-08T03:41:06;99196.97;;;11.78;68.00
40117;BME280;25829;50.228;18.936;2023-07-08T03:44:07;99195.19;;;11.86;67.89
40117;BME280;25829;50.228;18.936;2023-07-08T03:47:08;99188.06;;;11.86;67.93
40117;BME280;25829;50.228;18.936;2023-07-08T03:50:28;99192.97;;;11.89;68.29
40117;BME280;25829;50.228;18.936;2023-07-08T03:53:29;99191.13;;;11.90;68.32
40117;BME280;25829;50.228;18.936;2023-07-08T03:56:31;99190.56;;;11.94;68.29
40117;BME280;25829;50.228;18.936;2023-07-08T03:59:32;99182.00;;;11.99;68.17
40117;BME280;25829;50.228;18.936;2023-07-08T04:02:33;99190.41;;;12.03;68.11
40117;BME280;25829;50.228;18.936;2023-07-08T04:05:34;99190.00;;;12.06;68.47
40117;BME280;25829;50.228;18.936;2023-07-08T04:08:35;99181.06;;;12.13;68.28
40117;BME280;25829;50.228;18.936;2023-07-08T04:11:35;99191.25;;;12.23;68.58
40117;BME280;25829;50.228;18.936;2023-07-08T04:14:39;99179.88;;;12.29;68.29
40117;BME280;25829;50.228;18.936;2023-07-08T04:17:45;99187.63;;;12.37;68.03
40117;BME280;25829;50.228;18.936;2023-07-08T04:20:47;99188.22;;;12.46;68.31
40117;BME280;25829;50.228;18.936;2023-07-08T04:23:53;99185.19;;;12.56;68.55
40117;BME280;25829;50.228;18.936;2023-07-08T04:26:54;99179.72;;;12.64;68.41
40117;BME280;25829;50.228;18.936;2023-07-08T04:29:54;99184.78;;;12.65;68.85
40117;BME280;25829;50.228;18.936;2023-07-08T04:32:55;99178.47;;;12.73;68.78
40117;BME280;25829;50.228;18.936;2023-07-08T04:35:56;99183.38;;;12.83;69.15
40117;BME280;25829;50.228;18.936;2023-07-08T04:39:13;99169.91;;;12.91;69.42
40117;BME280;25829;50.228;18.936;2023-07-08T04:42:14;99169.31;;;13.02;69.22
40117;BME280;25829;50.228;18.936;2023-07-08T04:45:17;99165.66;;;13.16;69.33
40117;BME280;25829;50.228;18.936;2023-07-08T04:48:19;99163.16;;;13.28;68.98
40117;BME280;25829;50.228;18.936;2023-07-08T04:51:21;99173.34;;;13.38;69.48
40117;BME280;25829;50.228;18.936;2023-07-08T04:54:22;99166.16;;;13.52;69.23
40117;BME280;25829;50.228;18.936;2023-07-08T04:57:23;99168.53;;;13.66;69.20
40117;BME280;25829;50.228;18.936;2023-07-08T05:00:25;99170.13;;;13.81;69.25
40117;BME280;25829;50.228;18.936;2023-07-08T05:03:26;99167.22;;;13.96;69.19
40117;BME280;25829;50.228;18.936;2023-07-08T05:06:27;99165.88;;;14.11;69.21
40117;BME280;25829;50.228;18.936;2023-07-08T05:09:28;99160.31;;;14.26;69.17
40117;BME280;25829;50.228;18.936;2023-07-08T05:12:38;99152.44;;;14.45;69.10
40117;BME280;25829;50.228;18.936;2023-07-08T05:15:39;99163.34;;;14.61;69.29
40117;BME280;25829;50.228;18.936;2023-07-08T05:18:39;99163.59;;;14.78;69.21
40117;BME280;25829;50.228;18.936;2023-07-08T05:21:46;99165.91;;;14.93;68.84
40117;BME280;25829;50.228;18.936;2023-07-08T05:24:51;99166.00;;;15.05;68.63
40117;BME280;25829;50.228;18.936;2023-07-08T05:27:58;99159.53;;;15.19;68.50
40117;BME280;25829;50.228;18.936;2023-07-08T05:31:06;99169.38;;;15.37;68.86
40117;BME280;25829;50.228;18.936;2023-07-08T05:34:07;99162.06;;;15.51;67.50
40117;BME280;25829;50.228;18.936;2023-07-08T05:37:08;99166.78;;;15.67;67.00
40117;BME280;25829;50.228;18.936;2023-07-08T05:40:09;99158.41;;;15.82;66.46
40117;BME280;25829;50.228;18.936;2023-07-08T05:43:09;99165.78;;;15.98;66.17
40117;BME280;25829;50.228;18.936;2023-07-08T05:46:10;99158.56;;;16.17;66.20
40117;BME280;25829;50.228;18.936;2023-07-08T05:49:11;99163.84;;;16.36;65.81
40117;BME280;25829;50.228;18.936;2023-07-08T05:52:12;99154.84;;;16.48;64.84
40117;BME280;25829;50.228;18.936;2023-07-08T05:55:13;99158.69;;;16.64;64.42
40117;BME280;25829;50.228;18.936;2023-07-08T05:58:26;99161.94;;;16.78;64.40
40117;BME280;25829;50.228;18.936;2023-07-08T06:05:58;99157.56;;;17.07;63.12
40117;BME280;25829;50.228;18.936;2023-07-08T06:13:10;99171.72;;;17.31;62.49
40117;BME280;25829;50.228;18.936;2023-07-08T06:16:11;99170.88;;;17.42;62.43
40117;BME280;25829;50.228;18.936;2023-07-08T06:19:12;99174.09;;;17.56;62.13
40117;BME280;25829;50.228;18.936;2023-07-08T06:22:22;99183.22;;;17.72;61.45
40117;BME280;25829;50.228;18.936;2023-07-08T06:25:23;99171.94;;;17.82;60.83
40117;BME280;25829;50.228;18.936;2023-07-08T06:28:23;99166.66;;;17.99;60.39
40117;BME280;25829;50.228;18.936;2023-07-08T06:31:28;99164.59;;;18.17;60.33
40117;BME280;25829;50.228;18.936;2023-07-08T06:34:29;99163.44;;;18.42;60.28
40117;BME280;25829;50.228;18.936;2023-07-08T06:37:32;99153.56;;;18.76;60.00
40117;BME280;25829;50.228;18.936;2023-07-08T06:40:36;99159.94;;;19.26;60.28
40117;BME280;25829;50.228;18.936;2023-07-08T06:43:37;99172.84;;;19.73;59.41
40117;BME280;25829;50.228;18.936;2023-07-08T06:46:55;99173.25;;;20.09;59.19
40117;BME280;25829;50.228;18.936;2023-07-08T06:49:56;99178.03;;;20.34;58.00
40117;BME280;25829;50.228;18.936;2023-07-08T06:52:57;99180.63;;;20.50;56.93
40117;BME280;25829;50.228;18.936;2023-07-08T06:59:08;99177.78;;;20.62;55.72
40117;BME280;25829;50.228;18.936;2023-07-08T07:02:18;99168.19;;;20.71;55.33
40117;BME280;25829;50.228;18.936;2023-07-08T07:05:20;99166.41;;;20.87;54.35
40117;BME280;25829;50.228;18.936;2023-07-08T07:08:21;99172.41;;;20.99;54.11
40117;BME280;25829;50.228;18.936;2023-07-08T07:11:24;99167.13;;;21.15;53.98
40117;BME280;25829;50.228;18.936;2023-07-08T07:14:25;99168.88;;;21.36;53.33
40117;BME280;25829;50.228;18.936;2023-07-08T07:17:26;99161.44;;;21.54;52.69
40117;BME280;25829;50.228;18.936;2023-07-08T07:20:27;99171.97;;;21.65;49.88
40117;BME280;25829;50.228;18.936;2023-07-08T07:23:29;99173.63;;;21.72;50.84
40117;BME280;25829;50.228;18.936;2023-07-08T07:26:42;99168.56;;;21.85;48.93
40117;BME280;25829;50.228;18.936;2023-07-08T07:29:48;99158.13;;;21.94;49.94
40117;BME280;25829;50.228;18.936;2023-07-08T07:36:35;99163.53;;;22.20;49.75
40117;BME280;25829;50.228;18.936;2023-07-08T07:39:39;99158.97;;;22.25;48.00
40117;BME280;25829;50.228;18.936;2023-07-08T07:42:41;99177.25;;;22.28;47.20
40117;BME280;25829;50.228;18.936;2023-07-08T07:45:42;99176.19;;;22.29;47.08
40117;BME280;25829;50.228;18.936;2023-07-08T07:48:44;99170.56;;;22.31;45.99
40117;BME280;25829;50.228;18.936;2023-07-08T07:51:58;99170.03;;;22.34;45.57
40117;BME280;25829;50.228;18.936;2023-07-08T08:19:47;99171.06;;;23.09;41.93
40117;BME280;25829;50.228;18.936;2023-07-08T08:22:51;99179.94;;;23.20;40.95
40117;BME280;25829;50.228;18.936;2023-07-08T08:30:33;99171.78;;;23.56;40.34
40117;BME280;25829;50.228;18.936;2023-07-08T08:33:42;99175.19;;;23.77;40.67
40117;BME280;25829;50.228;18.936;2023-07-08T08:36:43;99168.03;;;24.06;40.64
40117;BME280;25829;50.228;18.936;2023-07-08T08:39:43;99171.38;;;24.33;40.54
40117;BME280;25829;50.228;18.936;2023-07-08T08:42:53;99164.53;;;24.80;40.20
40117;BME280;25829;50.228;18.936;2023-07-08T08:46:04;99166.09;;;25.63;39.20
40117;BME280;25829;50.228;18.936;2023-07-08T08:52:22;99162.94;;;27.71;36.16
40117;BME280;25829;50.228;18.936;2023-07-08T08:55:24;99153.09;;;28.56;36.54
40117;BME280;25829;50.228;18.936;2023-07-08T08:58:57;99152.31;;;29.66;31.95
40117;BME280;25829;50.228;18.936;2023-07-08T09:20:26;99154.88;;;33.52;32.22
40117;BME280;25829;50.228;18.936;2023-07-08T09:23:38;99153.00;;;33.80;32.50
40117;BME280;25829;50.228;18.936;2023-07-08T09:26:40;99154.28;;;34.11;31.99
40117;BME280;25829;50.228;18.936;2023-07-08T09:29:41;99149.94;;;34.22;32.01
40117;BME280;25829;50.228;18.936;2023-07-08T09:32:45;99150.41;;;34.40;30.97
40117;BME280;25829;50.228;18.936;2023-07-08T09:35:47;99151.28;;;34.44;31.06
40117;BME280;25829;50.228;18.936;2023-07-08T09:38:50;99143.66;;;34.66;30.70
40117;BME280;25829;50.228;18.936;2023-07-08T09:41:50;99143.41;;;34.86;30.64
40117;BME280;25829;50.228;18.936;2023-07-08T09:44:56;99152.88;;;35.05;28.73
40117;BME280;25829;50.228;18.936;2023-07-08T09:48:01;99148.63;;;35.07;29.00
40117;BME280;25829;50.228;18.936;2023-07-08T09:51:03;99143.16;;;35.07;29.03
40117;BME280;25829;50.228;18.936;2023-07-08T09:54:04;99149.88;;;34.94;29.40
40117;BME280;25829;50.228;18.936;2023-07-08T09:57:24;99145.91;;;34.92;26.98
40117;BME280;25829;50.228;18.936;2023-07-08T10:00:37;99134.28;;;34.51;28.32
40117;BME280;25829;50.228;18.936;2023-07-08T10:03:39;99136.31;;;33.98;30.05
40117;BME280;25829;50.228;18.936;2023-07-08T10:06:43;99138.22;;;33.44;29.35
40117;BME280;25829;50.228;18.936;2023-07-08T10:09:51;99142.84;;;32.83;29.41
40117;BME280;25829;50.228;18.936;2023-07-08T10:13:14;99135.16;;;32.18;28.47
40117;BME280;25829;50.228;18.936;2023-07-08T10:16:32;99129.03;;;31.58;27.52
40117;BME280;25829;50.228;18.936;2023-07-08T10:19:34;99120.63;;;30.96;29.35
40117;BME280;25829;50.228;18.936;2023-07-08T10:22:43;99123.84;;;30.42;28.78
40117;BME280;25829;50.228;18.936;2023-07-08T10:25:56;99125.16;;;30.01;29.36
40117;BME280;25829;50.228;18.936;2023-07-08T10:36:42;99116.47;;;28.76;29.95
40117;BME280;25829;50.228;18.936;2023-07-08T10:40:08;99110.09;;;28.49;29.42
40117;BME280;25829;50.228;18.936;2023-07-08T10:43:27;99111.56;;;28.11;30.85
40117;BME280;25829;50.228;18.936;2023-07-08T10:47:00;99109.75;;;27.83;30.77
40117;BME280;25829;50.228;18.936;2023-07-08T10:50:20;99107.41;;;27.54;29.02
40117;BME280;25829;50.228;18.936;2023-07-08T11:00:37;99096.38;;;26.82;30.16
40117;BME280;25829;50.228;18.936;2023-07-08T11:07:38;99089.53;;;26.38;28.16
40117;BME280;25829;50.228;18.936;2023-07-08T11:11:01;99091.78;;;26.17;30.10
40117;BME280;25829;50.228;18.936;2023-07-08T11:14:33;99088.44;;;26.06;30.10
40117;BME280;25829;50.228;18.936;2023-07-08T11:18:16;99077.94;;;26.05;30.70
40117;BME280;25829;50.228;18.936;2023-07-08T11:21:27;99084.84;;;26.11;31.03
40117;BME280;25829;50.228;18.936;2023-07-08T11:24:37;99081.06;;;26.12;31.88
40117;BME280;25829;50.228;18.936;2023-07-08T11:27:40;99073.03;;;26.07;30.77
40117;BME280;25829;50.228;18.936;2023-07-08T11:30:47;99074.19;;;26.01;30.22
40117;BME280;25829;50.228;18.936;2023-07-08T11:33:51;99077.78;;;25.96;31.39
40117;BME280;25829;50.228;18.936;2023-07-08T11:36:53;99074.28;;;25.96;31.61
40117;BME280;25829;50.228;18.936;2023-07-08T11:43:34;99063.47;;;25.96;30.73
40117;BME280;25829;50.228;18.936;2023-07-08T11:46:53;99070.56;;;25.91;30.39
40117;BME280;25829;50.228;18.936;2023-07-08T11:49:55;99069.25;;;25.89;31.38
40117;BME280;25829;50.228;18.936;2023-07-08T11:53:02;99064.84;;;25.93;30.92
40117;BME280;25829;50.228;18.936;2023-07-08T11:56:21;99058.59;;;25.98;29.36
40117;BME280;25829;50.228;18.936;2023-07-08T11:59:38;99060.41;;;26.02;29.22
40117;BME280;25829;50.228;18.936;2023-07-08T12:03:21;99061.78;;;26.00;29.53
40117;BME280;25829;50.228;18.936;2023-07-08T12:10:05;99055.78;;;26.03;30.86
40117;BME280;25829;50.228;18.936;2023-07-08T12:13:13;99049.09;;;26.14;31.32
40117;BME280;25829;50.228;18.936;2023-07-08T12:16:21;99053.66;;;26.18;28.07
40117;BME280;25829;50.228;18.936;2023-07-08T12:19:23;99051.28;;;25.98;30.14
40117;BME280;25829;50.228;18.936;2023-07-08T12:22:26;99035.44;;;25.91;30.80
40117;BME280;25829;50.228;18.936;2023-07-08T12:25:33;99039.50;;;25.89;28.99
40117;BME280;25829;50.228;18.936;2023-07-08T12:28:39;99035.56;;;25.81;30.50
40117;BME280;25829;50.228;18.936;2023-07-08T12:31:41;99038.75;;;25.83;30.35
40117;BME280;25829;50.228;18.936;2023-07-08T12:34:46;99028.03;;;25.78;29.90
40117;BME280;25829;50.228;18.936;2023-07-08T12:37:47;99021.31;;;25.76;30.20
40117;BME280;25829;50.228;18.936;2023-07-08T12:40:51;99014.63;;;25.73;30.15
40117;BME280;25829;50.228;18.936;2023-07-08T12:43:52;99016.22;;;25.74;30.51
40117;BME280;25829;50.228;18.936;2023-07-08T12:47:00;99019.03;;;25.83;30.51
40117;BME280;25829;50.228;18.936;2023-07-08T12:50:01;99024.66;;;25.86;30.64
40117;BME280;25829;50.228;18.936;2023-07-08T12:53:04;99020.94;;;25.82;30.06
40117;BME280;25829;50.228;18.936;2023-07-08T12:56:10;99005.63;;;25.78;30.03
40117;BME280;25829;50.228;18.936;2023-07-08T12:59:19;99011.38;;;25.71;29.86
40117;BME280;25829;50.228;18.936;2023-07-08T13:02:27;99009.59;;;25.66;29.48
40117;BME280;25829;50.228;18.936;2023-07-08T13:05:29;99004.75;;;25.63;29.92
40117;BME280;25829;50.228;18.936;2023-07-08T13:08:34;99009.38;;;25.63;29.72
40117;BME280;25829;50.228;18.936;2023-07-08T13:11:36;99003.13;;;25.62;30.07
40117;BME280;25829;50.228;18.936;2023-07-08T13:14:38;98999.34;;;25.63;29.27
40117;BME280;25829;50.228;18.936;2023-07-08T13:17:49;98994.00;;;25.58;28.92
40117;BME280;25829;50.228;18.936;2023-07-08T13:20:53;98991.19;;;25.50;29.18
40117;BME280;25829;50.228;18.936;2023-07-08T13:23:56;98994.38;;;25.52;30.32
40117;BME280;25829;50.228;18.936;2023-07-08T13:26:57;98988.13;;;25.56;29.84
40117;BME280;25829;50.228;18.936;2023-07-08T13:30:15;98990.72;;;25.61;29.89
40117;BME280;25829;50.228;18.936;2023-07-08T13:33:23;98989.03;;;25.65;30.55
40117;BME280;25829;50.228;18.936;2023-07-08T13:36:33;98996.28;;;25.70;30.43
40117;BME280;25829;50.228;18.936;2023-07-08T13:39:34;98987.59;;;25.73;30.88
40117;BME280;25829;50.228;18.936;2023-07-08T13:42:37;98991.59;;;25.76;30.67
40117;BME280;25829;50.228;18.936;2023-07-08T13:45:51;98982.00;;;25.83;29.60
40117;BME280;25829;50.228;18.936;2023-07-08T13:48:52;98993.91;;;25.82;30.07
40117;BME280;25829;50.228;18.936;2023-07-08T13:55:33;98983.63;;;25.84;30.12
40117;BME280;25829;50.228;18.936;2023-07-08T13:58:48;98977.34;;;25.89;29.25
40117;BME280;25829;50.228;18.936;2023-07-08T14:01:57;98984.75;;;25.97;29.78
40117;BME280;25829;50.228;18.936;2023-07-08T14:04:58;98982.00;;;26.02;29.66
40117;BME280;25829;50.228;18.936;2023-07-08T14:08:21;98986.44;;;26.12;28.45
40117;BME280;25829;50.228;18.936;2023-07-08T14:16:34;98981.22;;;26.15;27.90
40117;BME280;25829;50.228;18.936;2023-07-08T14:20:15;98973.91;;;26.16;27.57
40117;BME280;25829;50.228;18.936;2023-07-08T14:23:19;98968.78;;;26.14;29.13
40117;BME280;25829;50.228;18.936;2023-07-08T14:26:21;98975.44;;;26.22;29.35
40117;BME280;25829;50.228;18.936;2023-07-08T14:29:24;98977.53;;;26.25;28.57
40117;BME280;25829;50.228;18.936;2023-07-08T14:32:30;98964.81;;;26.26;28.27
40117;BME280;25829;50.228;18.936;2023-07-08T14:35:44;98965.88;;;26.25;28.32
40117;BME280;25829;50.228;18.936;2023-07-08T14:38:44;98965.28;;;26.28;28.64
40117;BME280;25829;50.228;18.936;2023-07-08T14:41:50;98955.59;;;26.27;28.35
40117;BME280;25829;50.228;18.936;2023-07-08T14:45:11;98956.09;;;26.29;28.62
40117;BME280;25829;50.228;18.936;2023-07-08T14:48:15;98950.38;;;26.30;28.43
40117;BME280;25829;50.228;18.936;2023-07-08T14:51:16;98953.69;;;26.27;28.34
40117;BME280;25829;50.228;18.936;2023-07-08T14:54:25;98954.59;;;26.23;27.45
40117;BME280;25829;50.228;18.936;2023-07-08T14:57:41;98946.47;;;26.23;28.66
40117;BME280;25829;50.228;18.936;2023-07-08T15:00:52;98948.06;;;26.24;28.86
40117;BME280;25829;50.228;18.936;2023-07-08T15:03:54;98942.38;;;26.25;28.89
40117;BME280;25829;50.228;18.936;2023-07-08T15:06:59;98942.25;;;26.30;28.87
40117;BME280;25829;50.228;18.936;2023-07-08T15:10:00;98946.38;;;26.28;28.65
40117;BME280;25829;50.228;18.936;2023-07-08T15:13:01;98948.00;;;26.29;28.80
40117;BME280;25829;50.228;18.936;2023-07-08T15:16:12;98946.88;;;26.30;28.59
40117;BME280;25829;50.228;18.936;2023-07-08T15:19:14;98933.16;;;26.26;28.72
40117;BME280;25829;50.228;18.936;2023-07-08T15:22:15;98939.94;;;26.24;28.37
40117;BME280;25829;50.228;18.936;2023-07-08T15:25:17;98932.44;;;26.21;28.20
40117;BME280;25829;50.228;18.936;2023-07-08T15:28:25;98930.63;;;26.16;28.06
40117;BME280;25829;50.228;18.936;2023-07-08T15:31:38;98927.41;;;26.14;27.97
40117;BME280;25829;50.228;18.936;2023-07-08T15:34:41;98936.13;;;26.11;28.39
40117;BME280;25829;50.228;18.936;2023-07-08T15:37:43;98937.22;;;26.10;28.67
40117;BME280;25829;50.228;18.936;2023-07-08T15:40:58;98924.81;;;26.09;28.24
40117;BME280;25829;50.228;18.936;2023-07-08T15:43:59;98937.34;;;26.05;28.16
40117;BME280;25829;50.228;18.936;2023-07-08T15:47:01;98930.63;;;26.02;28.49
40117;BME280;25829;50.228;18.936;2023-07-08T15:50:14;98924.91;;;26.04;28.08
40117;BME280;25829;50.228;18.936;2023-07-08T15:53:15;98930.81;;;26.06;28.93
40117;BME280;25829;50.228;18.936;2023-07-08T15:56:23;98925.41;;;26.06;29.16
40117;BME280;25829;50.228;18.936;2023-07-08T15:59:34;98924.09;;;26.03;29.01
40117;BME280;25829;50.228;18.936;2023-07-08T16:02:42;98930.81;;;26.06;29.08
40117;BME280;25829;50.228;18.936;2023-07-08T16:05:50;98926.81;;;26.03;28.04
40117;BME280;25829;50.228;18.936;2023-07-08T16:08:50;98918.22;;;26.01;28.51
40117;BME280;25829;50.228;18.936;2023-07-08T16:11:51;98927.72;;;25.99;28.42
40117;BME280;25829;50.228;18.936;2023-07-08T16:14:58;98915.00;;;25.99;28.71
40117;BME280;25829;50.228;18.936;2023-07-08T16:21:19;98918.59;;;25.94;28.71
40117;BME280;25829;50.228;18.936;2023-07-08T16:24:20;98918.28;;;25.96;28.78
40117;BME280;25829;50.228;18.936;2023-07-08T16:27:24;98914.00;;;25.95;28.82
40117;BME280;25829;50.228;18.936;2023-07-08T16:30:28;98911.38;;;25.90;28.64
40117;BME280;25829;50.228;18.936;2023-07-08T16:33:32;98913.34;;;25.84;28.59
40117;BME280;25829;50.228;18.936;2023-07-08T16:36:51;98912.81;;;25.82;27.71
40117;BME280;25829;50.228;18.936;2023-07-08T16:39:54;98916.13;;;25.79;28.63
40117;BME280;25829;50.228;18.936;2023-07-08T16:42:56;98916.72;;;25.76;28.80
40117;BME280;25829;50.228;18.936;2023-07-08T16:47:12;98911.63;;;25.75;27.40
40117;BME280;25829;50.228;18.936;2023-07-08T16:54:16;98914.69;;;25.68;28.11
40117;BME280;25829;50.228;18.936;2023-07-08T16:58:02;98917.72;;;25.66;29.21
40117;BME280;25829;50.228;18.936;2023-07-08T17:01:03;98913.69;;;25.64;28.81
40117;BME280;25829;50.228;18.936;2023-07-08T17:04:05;98914.78;;;25.63;29.22
40117;BME280;25829;50.228;18.936;2023-07-08T17:07:16;98912.38;;;25.61;28.80
40117;BME280;25829;50.228;18.936;2023-07-08T17:10:27;98908.66;;;25.57;29.31
40117;BME280;25829;50.228;18.936;2023-07-08T17:13:28;98903.06;;;25.54;29.48
40117;BME280;25829;50.228;18.936;2023-07-08T17:16:32;98899.81;;;25.52;29.37
40117;BME280;25829;50.228;18.936;2023-07-08T17:19:40;98897.22;;;25.46;29.22
40117;BME280;25829;50.228;18.936;2023-07-08T17:22:45;98896.72;;;25.44;29.17
40117;BME280;25829;50.228;18.936;2023-07-08T17:25:48;98891.41;;;25.39;29.09
40117;BME280;25829;50.228;18.936;2023-07-08T17:29:01;98896.88;;;25.34;29.42
40117;BME280;25829;50.228;18.936;2023-07-08T17:32:08;98906.44;;;25.27;30.47
40117;BME280;25829;50.228;18.936;2023-07-08T17:35:20;98899.25;;;25.17;31.29
40117;BME280;25829;50.228;18.936;2023-07-08T17:38:48;98895.91;;;25.06;32.24
40117;BME280;25829;50.228;18.936;2023-07-08T17:41:58;98893.72;;;24.89;34.35
40117;BME280;25829;50.228;18.936;2023-07-08T17:44:59;98901.59;;;24.67;35.11
40117;BME280;25829;50.228;18.936;2023-07-08T17:48:03;98903.41;;;24.47;35.38
40117;BME280;25829;50.228;18.936;2023-07-08T17:51:03;98901.72;;;24.33;35.85
40117;BME280;25829;50.228;18.936;2023-07-08T17:54:14;98906.91;;;24.24;36.21
40117;BME280;25829;50.228;18.936;2023-07-08T17:57:15;98908.91;;;24.13;36.64
40117;BME280;25829;50.228;18.936;2023-07-08T18:00:25;98905.03;;;23.95;37.19
40117;BME280;25829;50.228;18.936;2023-07-08T18:03:27;98907.34;;;23.78;38.18
40117;BME280;25829;50.228;18.936;2023-07-08T18:06:28;98897.28;;;23.59;39.46
40117;BME280;25829;50.228;18.936;2023-07-08T18:09:37;98905.78;;;23.43;40.26
40117;BME280;25829;50.228;18.936;2023-07-08T18:12:39;98908.84;;;23.31;40.98